sensor_id;sensor_type;location;lat;lon;timestamp;P1;durP1;ratioP1;P2;durP2;ratioP2
9310;SDS011;4694;52.464;13.480;2022-08-19T00:00:43;15.25;;;13.60;;
9310;SDS011;4694;52.464;13.480;2022-08-19T00:03:10;15.35;;;12.50;;
9310;SDS011;4694;52.464;13.480;2022-08-19T00:05:38;15.73;;;12.13;;
9310;SDS011;4694;52.464;13.480;2022-08-19T00:08:07;16.38;;;12.77;;
9310;SDS011;4694;52.464;13.480;2022-08-19T00:10:34;15.00;;;12.98;;
9310;SDS011;4694;52.464;13.480;2022-08-19T00:13:00;15.23;;;12.30;;
9310;SDS011;4694;52.464;13.480;2022-08-19T00:15:27;14.10;;;12.45;;
9310;SDS011;4694;52.464;13.480;2022-08-19T00:17:54;15.35;;;12.75;;
9310;SDS011;4694;52.464;13.480;2022-08-19T00:20:20;16.02;;;14.20;;
9310;SDS011;4694;52.464;13.480;2022-08-19T00:22:49;15.23;;;13.23;;
9310;SDS011;4694;52.464;13.480;2022-08-19T00:25:16;13.63;;;12.25;;
9310;SDS011;4694;52.464;13.480;2022-08-19T00:27:43;16.60;;;12.88;;
9310;SDS011;4694;52.464;13.480;2022-08-19T00:30:10;14.95;;;13.35;;
9310;SDS011;4694;52.464;13.480;2022-08-19T00:32:37;13.95;;;12.48;;
9310;SDS011;4694;52.464;13.480;2022-08-19T00:35:05;16.80;;;12.98;;
9310;SDS011;4694;52.464;13.480;2022-08-19T00:37:32;14.90;;;12.52;;
9310;SDS011;4694;52.464;13.480;2022-08-19T00:40:02;17.00;;;13.57;;
9310;SDS011;4694;52.464;13.480;2022-08-19T00:44:57;16.20;;;12.00;;
9310;SDS011;4694;52.464;13.480;2022-08-19T00:47:24;15.50;;;13.00;;
9310;SDS011;4694;52.464;13.480;2022-08-19T00:49:51;14.82;;;12.57;;
9310;SDS011;4694;52.464;13.480;2022-08-19T00:52:22;15.57;;;13.75;;
9310;SDS011;4694;52.464;13.480;2022-08-19T00:54:53;17.08;;;14.40;;
9310;SDS011;4694;52.464;13.480;2022-08-19T00:57:24;14.95;;;13.35;;
9310;SDS011;4694;52.464;13.480;2022-08-19T00:59:55;16.80;;;13.77;;
9310;SDS011;4694;52.464;13.480;2022-08-19T01:02:24;16.48;;;13.57;;
9310;SDS011;4694;52.464;13.480;2022-08-19T01:04:51;15.13;;;13.52;;
9310;SDS011;4694;52.464;13.480;2022-08-19T01:07:17;21.88;;;15.40;;
9310;SDS011;4694;52.464;13.480;2022-08-19T01:09:44;18.35;;;15.15;;
9310;SDS011;4694;52.464;13.480;2022-08-19T01:12:11;20.88;;;16.17;;
9310;SDS011;4694;52.464;13.480;2022-08-19T01:14:39;20.02;;;16.48;;
9310;SDS011;4694;52.464;13.480;2022-08-19T01:17:07;21.70;;;16.00;;
9310;SDS011;4694;52.464;13.480;2022-08-19T01:19:35;19.08;;;15.95;;
9310;SDS011;4694;52.464;13.480;2022-08-19T01:22:05;21.83;;;16.65;;
9310;SDS011;4694;52.464;13.480;2022-08-19T01:24:39;24.67;;;17.55;;
9310;SDS011;4694;52.464;13.480;2022-08-19T01:27:06;21.58;;;16.92;;
9310;SDS011;4694;52.464;13.480;2022-08-19T01:29:33;23.45;;;17.15;;
9310;SDS011;4694;52.464;13.480;2022-08-19T01:32:05;23.08;;;17.60;;
9310;SDS011;4694;52.464;13.480;2022-08-19T01:34:33;25.85;;;18.55;;
9310;SDS011;4694;52.464;13.480;2022-08-19T01:37:00;20.83;;;17.52;;
9310;SDS011;4694;52.464;13.480;2022-08-19T01:39:32;28.75;;;19.38;;
9310;SDS011;4694;52.464;13.480;2022-08-19T01:42:00;23.23;;;17.00;;
9310;SDS011;4694;52.464;13.480;2022-08-19T01:44:28;22.98;;;17.83;;
9310;SDS011;4694;52.464;13.480;2022-08-19T01:46:55;26.73;;;19.63;;
9310;SDS011;4694;52.464;13.480;2022-08-19T01:49:22;24.60;;;19.05;;
9310;SDS011;4694;52.464;13.480;2022-08-19T01:51:51;27.38;;;20.25;;
9310;SDS011;4694;52.464;13.480;2022-08-19T01:54:19;26.52;;;20.45;;
9310;SDS011;4694;52.464;13.480;2022-08-19T01:56:46;27.98;;;20.42;;
9310;SDS011;4694;52.464;13.480;2022-08-19T01:59:16;24.67;;;19.73;;
9310;SDS011;4694;52.464;13.480;2022-08-19T02:01:45;24.50;;;18.42;;
9310;SDS011;4694;52.464;13.480;2022-08-19T02:04:11;25.67;;;19.23;;
9310;SDS011;4694;52.464;13.480;2022-08-19T02:06:39;23.92;;;17.73;;
9310;SDS011;4694;52.464;13.480;2022-08-19T02:09:06;23.30;;;17.60;;
9310;SDS011;4694;52.464;13.480;2022-08-19T02:11:34;24.48;;;16.35;;
9310;SDS011;4694;52.464;13.480;2022-08-19T02:14:02;21.40;;;15.68;;
9310;SDS011;4694;52.464;13.480;2022-08-19T02:16:33;21.77;;;14.55;;
9310;SDS011;4694;52.464;13.480;2022-08-19T02:19:00;18.50;;;14.18;;
9310;SDS011;4694;52.464;13.480;2022-08-19T02:21:27;18.60;;;14.75;;
9310;SDS011;4694;52.464;13.480;2022-08-19T02:23:54;16.92;;;12.75;;
9310;SDS011;4694;52.464;13.480;2022-08-19T02:26:21;16.15;;;12.98;;
9310;SDS011;4694;52.464;13.480;2022-08-19T02:28:48;18.10;;;13.88;;
9310;SDS011;4694;52.464;13.480;2022-08-19T02:31:15;18.83;;;14.52;;
9310;SDS011;4694;52.464;13.480;2022-08-19T02:33:46;22.15;;;16.23;;
9310;SDS011;4694;52.464;13.480;2022-08-19T02:36:13;27.33;;;19.95;;
9310;SDS011;4694;52.464;13.480;2022-08-19T02:38:42;24.90;;;18.00;;
9310;SDS011;4694;52.464;13.480;2022-08-19T02:41:11;22.58;;;16.52;;
9310;SDS011;4694;52.464;13.480;2022-08-19T02:43:39;24.40;;;18.25;;
9310;SDS011;4694;52.464;13.480;2022-08-19T02:46:11;20.30;;;16.95;;
9310;SDS011;4694;52.464;13.480;2022-08-19T02:48:38;24.33;;;16.58;;
9310;SDS011;4694;52.464;13.480;2022-08-19T02:51:06;21.42;;;16.90;;
9310;SDS011;4694;52.464;13.480;2022-08-19T02:53:33;23.85;;;17.55;;
9310;SDS011;4694;52.464;13.480;2022-08-19T02:55:59;25.08;;;18.13;;
9310;SDS011;4694;52.464;13.480;2022-08-19T02:58:26;26.27;;;18.42;;
9310;SDS011;4694;52.464;13.480;2022-08-19T03:00:53;25.20;;;19.48;;
9310;SDS011;4694;52.464;13.480;2022-08-19T03:03:22;22.23;;;18.42;;
9310;SDS011;4694;52.464;13.480;2022-08-19T03:05:49;24.27;;;18.40;;
9310;SDS011;4694;52.464;13.480;2022-08-19T03:08:17;29.90;;;20.00;;
9310;SDS011;4694;52.464;13.480;2022-08-19T03:10:44;27.17;;;20.27;;
9310;SDS011;4694;52.464;13.480;2022-08-19T03:13:13;28.30;;;21.48;;
9310;SDS011;4694;52.464;13.480;2022-08-19T03:15:42;25.90;;;20.25;;
9310;SDS011;4694;52.464;13.480;2022-08-19T03:18:09;25.40;;;20.58;;
9310;SDS011;4694;52.464;13.480;2022-08-19T03:20:40;24.90;;;18.95;;
9310;SDS011;4694;52.464;13.480;2022-08-19T03:23:07;28.30;;;19.27;;
9310;SDS011;4694;52.464;13.480;2022-08-19T03:25:37;30.38;;;20.92;;
9310;SDS011;4694;52.464;13.480;2022-08-19T03:28:06;28.08;;;20.67;;
9310;SDS011;4694;52.464;13.480;2022-08-19T03:30:33;23.48;;;19.48;;
9310;SDS011;4694;52.464;13.480;2022-08-19T03:33:00;25.38;;;20.50;;
9310;SDS011;4694;52.464;13.480;2022-08-19T03:35:27;26.08;;;19.73;;
9310;SDS011;4694;52.464;13.480;2022-08-19T03:37:54;25.13;;;19.70;;
9310;SDS011;4694;52.464;13.480;2022-08-19T03:40:21;20.23;;;18.00;;
9310;SDS011;4694;52.464;13.480;2022-08-19T03:42:49;23.70;;;18.45;;
9310;SDS011;4694;52.464;13.480;2022-08-19T03:45:16;25.35;;;18.83;;
9310;SDS011;4694;52.464;13.480;2022-08-19T03:47:42;23.45;;;19.15;;
9310;SDS011;4694;52.464;13.480;2022-08-19T03:50:10;24.58;;;18.45;;
9310;SDS011;4694;52.464;13.480;2022-08-19T03:52:37;23.15;;;18.88;;
9310;SDS011;4694;52.464;13.480;2022-08-19T03:55:04;24.13;;;19.42;;
9310;SDS011;4694;52.464;13.480;2022-08-19T03:57:32;21.08;;;17.08;;
9310;SDS011;4694;52.464;13.480;2022-08-19T04:00:00;22.27;;;18.90;;
9310;SDS011;4694;52.464;13.480;2022-08-19T04:02:29;22.83;;;17.45;;
9310;SDS011;4694;52.464;13.480;2022-08-19T04:04:56;22.02;;;17.70;;
9310;SDS011;4694;52.464;13.480;2022-08-19T04:07:23;19.55;;;15.55;;
9310;SDS011;4694;52.464;13.480;2022-08-19T04:09:49;21.83;;;16.77;;
9310;SDS011;4694;52.464;13.480;2022-08-19T04:12:17;22.42;;;18.15;;
9310;SDS011;4694;52.464;13.480;2022-08-19T04:14:45;22.73;;;18.08;;
9310;SDS011;4694;52.464;13.480;2022-08-19T04:17:13;22.38;;;18.05;;
9310;SDS011;4694;52.464;13.480;2022-08-19T04:19:39;25.20;;;18.73;;
9310;SDS011;4694;52.464;13.480;2022-08-19T04:22:07;20.95;;;17.20;;
9310;SDS011;4694;52.464;13.480;2022-08-19T04:24:36;21.30;;;16.75;;
9310;SDS011;4694;52.464;13.480;2022-08-19T04:27:03;22.95;;;18.75;;
9310;SDS011;4694;52.464;13.480;2022-08-19T04:29:30;22.85;;;17.90;;
9310;SDS011;4694;52.464;13.480;2022-08-19T04:31:57;22.55;;;18.42;;
9310;SDS011;4694;52.464;13.480;2022-08-19T04:34:27;23.25;;;18.65;;
9310;SDS011;4694;52.464;13.480;2022-08-19T04:36:55;20.98;;;18.52;;
9310;SDS011;4694;52.464;13.480;2022-08-19T04:39:23;21.40;;;17.38;;
9310;SDS011;4694;52.464;13.480;2022-08-19T04:42:12;20.90;;;16.20;;
9310;SDS011;4694;52.464;13.480;2022-08-19T04:44:56;20.58;;;16.85;;
9310;SDS011;4694;52.464;13.480;2022-08-19T04:47:23;22.73;;;15.93;;
9310;SDS011;4694;52.464;13.480;2022-08-19T04:49:51;19.67;;;16.98;;
9310;SDS011;4694;52.464;13.480;2022-08-19T04:52:17;20.30;;;16.55;;
9310;SDS011;4694;52.464;13.480;2022-08-19T04:54:44;18.23;;;15.32;;
9310;SDS011;4694;52.464;13.480;2022-08-19T04:57:11;21.08;;;15.75;;
9310;SDS011;4694;52.464;13.480;2022-08-19T04:59:38;19.00;;;15.10;;
9310;SDS011;4694;52.464;13.480;2022-08-19T05:02:06;20.65;;;14.95;;
9310;SDS011;4694;52.464;13.480;2022-08-19T05:04:33;18.98;;;14.63;;
9310;SDS011;4694;52.464;13.480;2022-08-19T05:07:04;18.92;;;15.00;;
9310;SDS011;4694;52.464;13.480;2022-08-19T05:09:31;18.85;;;16.85;;
9310;SDS011;4694;52.464;13.480;2022-08-19T05:11:57;17.50;;;15.23;;
9310;SDS011;4694;52.464;13.480;2022-08-19T05:14:25;19.38;;;16.27;;
9310;SDS011;4694;52.464;13.480;2022-08-19T05:16:51;17.88;;;15.98;;
9310;SDS011;4694;52.464;13.480;2022-08-19T05:19:18;22.67;;;16.58;;
9310;SDS011;4694;52.464;13.480;2022-08-19T05:22:04;20.10;;;16.30;;
9310;SDS011;4694;52.464;13.480;2022-08-19T05:24:48;15.57;;;13.98;;
9310;SDS011;4694;52.464;13.480;2022-08-19T05:27:15;20.98;;;16.77;;
9310;SDS011;4694;52.464;13.480;2022-08-19T05:29:41;18.27;;;16.00;;
9310;SDS011;4694;52.464;13.480;2022-08-19T05:32:08;17.98;;;14.35;;
9310;SDS011;4694;52.464;13.480;2022-08-19T05:34:35;17.38;;;15.55;;
9310;SDS011;4694;52.464;13.480;2022-08-19T05:37:04;17.08;;;14.32;;
9310;SDS011;4694;52.464;13.480;2022-08-19T05:39:33;26.97;;;15.90;;
9310;SDS011;4694;52.464;13.480;2022-08-19T05:42:02;19.75;;;15.55;;
9310;SDS011;4694;52.464;13.480;2022-08-19T05:44:32;14.82;;;13.13;;
9310;SDS011;4694;52.464;13.480;2022-08-19T05:47:01;14.15;;;12.57;;
9310;SDS011;4694;52.464;13.480;2022-08-19T05:49:31;17.17;;;12.68;;
9310;SDS011;4694;52.464;13.480;2022-08-19T05:52:01;17.13;;;13.02;;
9310;SDS011;4694;52.464;13.480;2022-08-19T05:54:30;17.00;;;13.45;;
9310;SDS011;4694;52.464;13.480;2022-08-19T05:56:57;16.67;;;13.32;;
9310;SDS011;4694;52.464;13.480;2022-08-19T05:59:24;14.68;;;13.18;;
9310;SDS011;4694;52.464;13.480;2022-08-19T06:01:51;16.00;;;13.65;;
9310;SDS011;4694;52.464;13.480;2022-08-19T06:04:20;17.00;;;13.43;;
9310;SDS011;4694;52.464;13.480;2022-08-19T06:06:48;16.55;;;14.80;;
9310;SDS011;4694;52.464;13.480;2022-08-19T06:09:18;19.23;;;15.02;;
9310;SDS011;4694;52.464;13.480;2022-08-19T06:11:46;18.73;;;14.35;;
9310;SDS011;4694;52.464;13.480;2022-08-19T06:14:14;15.10;;;13.52;;
9310;SDS011;4694;52.464;13.480;2022-08-19T06:16:45;18.83;;;15.45;;
9310;SDS011;4694;52.464;13.480;2022-08-19T06:19:13;17.40;;;14.60;;
9310;SDS011;4694;52.464;13.480;2022-08-19T06:21:43;16.13;;;14.18;;
9310;SDS011;4694;52.464;13.480;2022-08-19T06:24:13;17.58;;;13.40;;
9310;SDS011;4694;52.464;13.480;2022-08-19T06:26:43;16.85;;;15.10;;
9310;SDS011;4694;52.464;13.480;2022-08-19T06:29:13;14.77;;;13.07;;
9310;SDS011;4694;52.464;13.480;2022-08-19T06:31:41;17.08;;;14.38;;
9310;SDS011;4694;52.464;13.480;2022-08-19T06:34:09;17.35;;;14.10;;
9310;SDS011;4694;52.464;13.480;2022-08-19T06:36:38;17.27;;;14.05;;
9310;SDS011;4694;52.464;13.480;2022-08-19T06:39:07;17.45;;;15.75;;
9310;SDS011;4694;52.464;13.480;2022-08-19T06:41:35;18.27;;;12.82;;
9310;SDS011;4694;52.464;13.480;2022-08-19T06:44:05;21.05;;;14.93;;
9310;SDS011;4694;52.464;13.480;2022-08-19T06:46:32;15.65;;;14.00;;
9310;SDS011;4694;52.464;13.480;2022-08-19T06:48:59;17.88;;;14.90;;
9310;SDS011;4694;52.464;13.480;2022-08-19T06:51:26;15.63;;;13.10;;
9310;SDS011;4694;52.464;13.480;2022-08-19T06:53:54;18.02;;;15.10;;
9310;SDS011;4694;52.464;13.480;2022-08-19T06:56:22;15.43;;;13.48;;
9310;SDS011;4694;52.464;13.480;2022-08-19T06:58:55;16.58;;;14.80;;
9310;SDS011;4694;52.464;13.480;2022-08-19T07:01:23;17.65;;;15.13;;
9310;SDS011;4694;52.464;13.480;2022-08-19T07:03:50;18.38;;;15.57;;
9310;SDS011;4694;52.464;13.480;2022-08-19T07:06:17;19.08;;;16.08;;
9310;SDS011;4694;52.464;13.480;2022-08-19T07:08:45;18.27;;;15.90;;
9310;SDS011;4694;52.464;13.480;2022-08-19T07:11:13;17.50;;;15.60;;
9310;SDS011;4694;52.464;13.480;2022-08-19T07:13:41;18.73;;;15.50;;
9310;SDS011;4694;52.464;13.480;2022-08-19T07:16:09;17.88;;;15.95;;
9310;SDS011;4694;52.464;13.480;2022-08-19T07:18:39;20.02;;;15.43;;
9310;SDS011;4694;52.464;13.480;2022-08-19T07:21:06;20.77;;;16.98;;
9310;SDS011;4694;52.464;13.480;2022-08-19T07:23:34;17.13;;;15.40;;
9310;SDS011;4694;52.464;13.480;2022-08-19T07:26:03;23.80;;;17.08;;
9310;SDS011;4694;52.464;13.480;2022-08-19T07:28:31;20.88;;;16.58;;
9310;SDS011;4694;52.464;13.480;2022-08-19T07:30:57;22.48;;;16.10;;
9310;SDS011;4694;52.464;13.480;2022-08-19T07:33:26;17.75;;;15.90;;
9310;SDS011;4694;52.464;13.480;2022-08-19T07:35:56;20.65;;;15.98;;
9310;SDS011;4694;52.464;13.480;2022-08-19T07:38:23;19.38;;;16.48;;
9310;SDS011;4694;52.464;13.480;2022-08-19T07:40:49;22.13;;;18.83;;
9310;SDS011;4694;52.464;13.480;2022-08-19T07:43:16;20.45;;;15.40;;
9310;SDS011;4694;52.464;13.480;2022-08-19T07:45:50;20.50;;;18.23;;
9310;SDS011;4694;52.464;13.480;2022-08-19T07:48:17;18.83;;;16.88;;
9310;SDS011;4694;52.464;13.480;2022-08-19T07:50:44;31.08;;;16.77;;
9310;SDS011;4694;52.464;13.480;2022-08-19T07:53:14;20.20;;;16.77;;
9310;SDS011;4694;52.464;13.480;2022-08-19T07:55:41;18.17;;;16.02;;
9310;SDS011;4694;52.464;13.480;2022-08-19T07:58:08;18.85;;;16.98;;
9310;SDS011;4694;52.464;13.480;2022-08-19T08:00:35;18.00;;;16.30;;
9310;SDS011;4694;52.464;13.480;2022-08-19T08:03:02;22.17;;;17.98;;
9310;SDS011;4694;52.464;13.480;2022-08-19T08:05:29;22.75;;;16.95;;
9310;SDS011;4694;52.464;13.480;2022-08-19T08:08:15;17.15;;;15.35;;
9310;SDS011;4694;52.464;13.480;2022-08-19T08:11:02;19.65;;;16.08;;
9310;SDS011;4694;52.464;13.480;2022-08-19T08:13:29;20.35;;;17.10;;
9310;SDS011;4694;52.464;13.480;2022-08-19T08:15:55;21.42;;;16.88;;
9310;SDS011;4694;52.464;13.480;2022-08-19T08:18:23;20.77;;;18.10;;
9310;SDS011;4694;52.464;13.480;2022-08-19T08:20:49;20.27;;;16.70;;
9310;SDS011;4694;52.464;13.480;2022-08-19T08:23:17;20.25;;;18.00;;
9310;SDS011;4694;52.464;13.480;2022-08-19T08:25:50;26.00;;;19.55;;
9310;SDS011;4694;52.464;13.480;2022-08-19T08:28:18;21.27;;;16.92;;
9310;SDS011;4694;52.464;13.480;2022-08-19T08:30:45;19.52;;;17.45;;
9310;SDS011;4694;52.464;13.480;2022-08-19T08:33:13;22.88;;;17.63;;
9310;SDS011;4694;52.464;13.480;2022-08-19T08:35:42;21.38;;;17.33;;
9310;SDS011;4694;52.464;13.480;2022-08-19T08:38:10;18.23;;;16.02;;
9310;SDS011;4694;52.464;13.480;2022-08-19T08:40:42;20.40;;;15.85;;
9310;SDS011;4694;52.464;13.480;2022-08-19T08:43:18;22.35;;;16.67;;
9310;SDS011;4694;52.464;13.480;2022-08-19T08:45:55;19.20;;;16.42;;
9310;SDS011;4694;52.464;13.480;2022-08-19T08:48:34;18.75;;;16.38;;
9310;SDS011;4694;52.464;13.480;2022-08-19T08:51:03;18.40;;;16.25;;
9310;SDS011;4694;52.464;13.480;2022-08-19T08:53:33;19.33;;;17.38;;
9310;SDS011;4694;52.464;13.480;2022-08-19T08:56:03;19.23;;;17.00;;
9310;SDS011;4694;52.464;13.480;2022-08-19T09:01:17;18.95;;;17.08;;
9310;SDS011;4694;52.464;13.480;2022-08-19T09:03:44;19.83;;;17.05;;
9310;SDS011;4694;52.464;13.480;2022-08-19T09:06:12;20.27;;;18.05;;
9310;SDS011;4694;52.464;13.480;2022-08-19T09:08:46;23.35;;;16.83;;
9310;SDS011;4694;52.464;13.480;2022-08-19T09:11:33;20.08;;;17.58;;
9310;SDS011;4694;52.464;13.480;2022-08-19T09:14:08;20.85;;;18.20;;
9310;SDS011;4694;52.464;13.480;2022-08-19T09:16:41;20.33;;;17.35;;
9310;SDS011;4694;52.464;13.480;2022-08-19T09:19:08;18.80;;;16.55;;
9310;SDS011;4694;52.464;13.480;2022-08-19T09:21:36;16.23;;;14.63;;
9310;SDS011;4694;52.464;13.480;2022-08-19T09:24:03;20.20;;;18.02;;
9310;SDS011;4694;52.464;13.480;2022-08-19T09:26:32;26.58;;;20.13;;
9310;SDS011;4694;52.464;13.480;2022-08-19T09:28:59;21.15;;;19.05;;
9310;SDS011;4694;52.464;13.480;2022-08-19T09:31:30;22.38;;;19.95;;
9310;SDS011;4694;52.464;13.480;2022-08-19T09:33:57;25.15;;;19.95;;
9310;SDS011;4694;52.464;13.480;2022-08-19T09:36:25;23.65;;;21.13;;
9310;SDS011;4694;52.464;13.480;2022-08-19T09:38:54;22.83;;;20.35;;
9310;SDS011;4694;52.464;13.480;2022-08-19T09:41:23;23.25;;;20.65;;
9310;SDS011;4694;52.464;13.480;2022-08-19T09:43:53;23.55;;;20.90;;
9310;SDS011;4694;52.464;13.480;2022-08-19T09:46:21;23.02;;;19.08;;
9310;SDS011;4694;52.464;13.480;2022-08-19T09:48:49;24.98;;;19.77;;
9310;SDS011;4694;52.464;13.480;2022-08-19T09:51:19;24.33;;;21.73;;
9310;SDS011;4694;52.464;13.480;2022-08-19T09:53:48;24.05;;;18.95;;
9310;SDS011;4694;52.464;13.480;2022-08-19T09:56:16;20.85;;;18.70;;
9310;SDS011;4694;52.464;13.480;2022-08-19T09:58:44;23.20;;;19.40;;
9310;SDS011;4694;52.464;13.480;2022-08-19T10:01:16;21.17;;;18.75;;
9310;SDS011;4694;52.464;13.480;2022-08-19T10:03:46;20.73;;;18.33;;
9310;SDS011;4694;52.464;13.480;2022-08-19T10:06:14;23.30;;;19.70;;
9310;SDS011;4694;52.464;13.480;2022-08-19T10:08:41;23.27;;;20.80;;
9310;SDS011;4694;52.464;13.480;2022-08-19T10:11:08;22.20;;;19.98;;
9310;SDS011;4694;52.464;13.480;2022-08-19T10:13:35;20.73;;;18.58;;
9310;SDS011;4694;52.464;13.480;2022-08-19T10:16:03;21.58;;;19.30;;
9310;SDS011;4694;52.464;13.480;2022-08-19T10:18:33;20.42;;;18.17;;
9310;SDS011;4694;52.464;13.480;2022-08-19T10:21:04;23.50;;;19.15;;
9310;SDS011;4694;52.464;13.480;2022-08-19T10:23:34;20.70;;;17.60;;
9310;SDS011;4694;52.464;13.480;2022-08-19T10:26:02;21.38;;;18.02;;
9310;SDS011;4694;52.464;13.480;2022-08-19T10:28:31;20.50;;;18.35;;
9310;SDS011;4694;52.464;13.480;2022-08-19T10:31:02;21.38;;;19.42;;
9310;SDS011;4694;52.464;13.480;2022-08-19T10:33:31;22.17;;;19.13;;
9310;SDS011;4694;52.464;13.480;2022-08-19T10:36:00;22.27;;;17.70;;
9310;SDS011;4694;52.464;13.480;2022-08-19T10:38:27;21.00;;;18.02;;
9310;SDS011;4694;52.464;13.480;2022-08-19T10:40:54;21.08;;;18.95;;
9310;SDS011;4694;52.464;13.480;2022-08-19T10:43:21;22.40;;;16.90;;
9310;SDS011;4694;52.464;13.480;2022-08-19T10:45:51;20.08;;;16.85;;
9310;SDS011;4694;52.464;13.480;2022-08-19T10:48:18;20.95;;;18.17;;
9310;SDS011;4694;52.464;13.480;2022-08-19T10:50:46;20.95;;;18.65;;
9310;SDS011;4694;52.464;13.480;2022-08-19T10:53:30;20.27;;;18.25;;
9310;SDS011;4694;52.464;13.480;2022-08-19T10:55:57;29.40;;;22.13;;
9310;SDS011;4694;52.464;13.480;2022-08-19T10:58:41;22.80;;;18.70;;
9310;SDS011;4694;52.464;13.480;2022-08-19T11:01:10;20.20;;;18.15;;
9310;SDS011;4694;52.464;13.480;2022-08-19T11:03:37;21.90;;;16.77;;
9310;SDS011;4694;52.464;13.480;2022-08-19T11:06:06;17.42;;;15.63;;
9310;SDS011;4694;52.464;13.480;2022-08-19T11:08:34;18.65;;;16.13;;
9310;SDS011;4694;52.464;13.480;2022-08-19T11:11:03;20.17;;;16.25;;
9310;SDS011;4694;52.464;13.480;2022-08-19T11:13:30;18.98;;;16.30;;
9310;SDS011;4694;52.464;13.480;2022-08-19T11:16:00;17.23;;;15.20;;
9310;SDS011;4694;52.464;13.480;2022-08-19T11:18:29;18.60;;;16.52;;
9310;SDS011;4694;52.464;13.480;2022-08-19T11:21:05;18.25;;;16.33;;
9310;SDS011;4694;52.464;13.480;2022-08-19T11:23:33;20.05;;;16.52;;
9310;SDS011;4694;52.464;13.480;2022-08-19T11:26:00;21.42;;;18.02;;
9310;SDS011;4694;52.464;13.480;2022-08-19T11:28:27;17.52;;;15.70;;
9310;SDS011;4694;52.464;13.480;2022-08-19T11:30:53;18.48;;;16.48;;
9310;SDS011;4694;52.464;13.480;2022-08-19T11:33:20;18.92;;;16.65;;
9310;SDS011;4694;52.464;13.480;2022-08-19T11:35:47;15.57;;;14.02;;
9310;SDS011;4694;52.464;13.480;2022-08-19T11:38:15;17.27;;;15.63;;
9310;SDS011;4694;52.464;13.480;2022-08-19T11:40:43;17.17;;;15.20;;
9310;SDS011;4694;52.464;13.480;2022-08-19T11:43:10;16.45;;;13.75;;
9310;SDS011;4694;52.464;13.480;2022-08-19T11:45:36;17.17;;;14.10;;
9310;SDS011;4694;52.464;13.480;2022-08-19T11:48:03;16.80;;;14.25;;
9310;SDS011;4694;52.464;13.480;2022-08-19T11:50:30;15.38;;;13.75;;
9310;SDS011;4694;52.464;13.480;2022-08-19T11:52:56;16.10;;;14.45;;
9310;SDS011;4694;52.464;13.480;2022-08-19T11:55:24;17.50;;;13.50;;
9310;SDS011;4694;52.464;13.480;2022-08-19T11:57:51;17.95;;;14.25;;
9310;SDS011;4694;52.464;13.480;2022-08-19T12:00:18;18.90;;;14.27;;
9310;SDS011;4694;52.464;13.480;2022-08-19T12:02:45;16.38;;;12.80;;
9310;SDS011;4694;52.464;13.480;2022-08-19T12:05:11;16.38;;;14.73;;
9310;SDS011;4694;52.464;13.480;2022-08-19T12:07:39;14.48;;;13.10;;
9310;SDS011;4694;52.464;13.480;2022-08-19T12:10:08;16.27;;;14.10;;
9310;SDS011;4694;52.464;13.480;2022-08-19T12:12:37;14.20;;;12.48;;
9310;SDS011;4694;52.464;13.480;2022-08-19T12:15:07;14.63;;;13.13;;
9310;SDS011;4694;52.464;13.480;2022-08-19T12:17:35;13.45;;;12.07;;
9310;SDS011;4694;52.464;13.480;2022-08-19T12:20:03;17.33;;;13.05;;
9310;SDS011;4694;52.464;13.480;2022-08-19T12:22:30;14.68;;;13.15;;
9310;SDS011;4694;52.464;13.480;2022-08-19T12:24:57;14.45;;;12.93;;
9310;SDS011;4694;52.464;13.480;2022-08-19T12:27:24;14.13;;;12.65;;
9310;SDS011;4694;52.464;13.480;2022-08-19T12:29:52;13.38;;;12.05;;
9310;SDS011;4694;52.464;13.480;2022-08-19T12:32:18;14.30;;;12.88;;
9310;SDS011;4694;52.464;13.480;2022-08-19T12:34:46;15.05;;;13.55;;
9310;SDS011;4694;52.464;13.480;2022-08-19T12:37:13;14.45;;;12.70;;
9310;SDS011;4694;52.464;13.480;2022-08-19T12:39:41;14.63;;;12.20;;
9310;SDS011;4694;52.464;13.480;2022-08-19T12:42:08;15.80;;;11.52;;
9310;SDS011;4694;52.464;13.480;2022-08-19T12:44:36;13.65;;;12.25;;
9310;SDS011;4694;52.464;13.480;2022-08-19T12:47:06;13.45;;;11.82;;
9310;SDS011;4694;52.464;13.480;2022-08-19T12:49:33;13.07;;;11.77;;
9310;SDS011;4694;52.464;13.480;2022-08-19T12:52:02;14.02;;;11.88;;
9310;SDS011;4694;52.464;13.480;2022-08-19T12:54:29;12.93;;;11.52;;
9310;SDS011;4694;52.464;13.480;2022-08-19T12:56:56;15.75;;;10.95;;
9310;SDS011;4694;52.464;13.480;2022-08-19T12:59:24;12.95;;;11.75;;
9310;SDS011;4694;52.464;13.480;2022-08-19T13:01:51;12.93;;;11.63;;
9310;SDS011;4694;52.464;13.480;2022-08-19T13:04:18;11.73;;;10.52;;
9310;SDS011;4694;52.464;13.480;2022-08-19T13:06:45;13.52;;;11.27;;
9310;SDS011;4694;52.464;13.480;2022-08-19T13:09:12;12.15;;;10.95;;
9310;SDS011;4694;52.464;13.480;2022-08-19T13:11:39;14.02;;;10.82;;
9310;SDS011;4694;52.464;13.480;2022-08-19T13:14:05;13.52;;;10.88;;
9310;SDS011;4694;52.464;13.480;2022-08-19T13:16:32;14.23;;;10.80;;
9310;SDS011;4694;52.464;13.480;2022-08-19T13:18:59;12.80;;;11.60;;
9310;SDS011;4694;52.464;13.480;2022-08-19T13:21:29;14.20;;;11.27;;
9310;SDS011;4694;52.464;13.480;2022-08-19T13:23:55;16.63;;;13.55;;
9310;SDS011;4694;52.464;13.480;2022-08-19T13:26:23;13.65;;;11.85;;
9310;SDS011;4694;52.464;13.480;2022-08-19T13:28:49;16.08;;;13.30;;
9310;SDS011;4694;52.464;13.480;2022-08-19T13:31:34;13.45;;;11.68;;
9310;SDS011;4694;52.464;13.480;2022-08-19T13:34:26;14.43;;;12.93;;
9310;SDS011;4694;52.464;13.480;2022-08-19T13:36:56;15.07;;;12.60;;
9310;SDS011;4694;52.464;13.480;2022-08-19T13:39:23;14.45;;;12.95;;
9310;SDS011;4694;52.464;13.480;2022-08-19T13:41:50;13.88;;;12.57;;
9310;SDS011;4694;52.464;13.480;2022-08-19T13:44:16;17.80;;;12.52;;
9310;SDS011;4694;52.464;13.480;2022-08-19T13:46:44;14.82;;;12.98;;
9310;SDS011;4694;52.464;13.480;2022-08-19T13:49:10;14.55;;;13.05;;
9310;SDS011;4694;52.464;13.480;2022-08-19T13:51:40;13.57;;;12.17;;
9310;SDS011;4694;52.464;13.480;2022-08-19T13:54:08;13.23;;;11.85;;
9310;SDS011;4694;52.464;13.480;2022-08-19T13:56:39;16.33;;;13.23;;
9310;SDS011;4694;52.464;13.480;2022-08-19T13:59:07;15.38;;;13.85;;
9310;SDS011;4694;52.464;13.480;2022-08-19T14:01:34;15.57;;;13.43;;
9310;SDS011;4694;52.464;13.480;2022-08-19T14:04:01;14.52;;;13.02;;
9310;SDS011;4694;52.464;13.480;2022-08-19T14:06:28;14.82;;;13.25;;
9310;SDS011;4694;52.464;13.480;2022-08-19T14:08:54;13.93;;;12.27;;
9310;SDS011;4694;52.464;13.480;2022-08-19T14:11:22;17.20;;;13.10;;
9310;SDS011;4694;52.464;13.480;2022-08-19T14:13:49;17.17;;;13.35;;
9310;SDS011;4694;52.464;13.480;2022-08-19T14:16:16;14.75;;;13.10;;
9310;SDS011;4694;52.464;13.480;2022-08-19T14:18:43;15.23;;;12.43;;
9310;SDS011;4694;52.464;13.480;2022-08-19T14:21:13;15.48;;;12.82;;
9310;SDS011;4694;52.464;13.480;2022-08-19T14:23:43;13.48;;;12.18;;
9310;SDS011;4694;52.464;13.480;2022-08-19T14:26:11;14.13;;;12.82;;
9310;SDS011;4694;52.464;13.480;2022-08-19T14:28:40;14.70;;;13.13;;
9310;SDS011;4694;52.464;13.480;2022-08-19T14:31:08;13.70;;;12.35;;
9310;SDS011;4694;52.464;13.480;2022-08-19T14:33:35;15.27;;;13.40;;
9310;SDS011;4694;52.464;13.480;2022-08-19T14:36:02;13.90;;;12.45;;
9310;SDS011;4694;52.464;13.480;2022-08-19T14:38:30;14.82;;;13.18;;
9310;SDS011;4694;52.464;13.480;2022-08-19T14:41:05;15.13;;;13.73;;
9310;SDS011;4694;52.464;13.480;2022-08-19T14:43:32;15.32;;;12.73;;
9310;SDS011;4694;52.464;13.480;2022-08-19T14:46:00;15.05;;;12.50;;